Time;durP1;ratioP1;P1;durP2;ratioP2;P2;SDS_P1;SDS_P2;PMS_P1;PMS_P2;Temp;Humidity;BMP_temperature;BMP_pressure;BME280_temperature;BME280_humidity;BME280_pressure;Samples;Min_cycle;Max_cycle;Signal;HPM_P1;HPM_P2
2023/11/06 00:00:21;;;;;;;10.07;9.18;;;;;;;6.38;100.00;95045.78;5084268;28;20630;-63
2023/11/06 00:02:48;;;;;;;9.70;8.80;;;;;;;6.37;100.00;95048.56;5091591;28;20532;-64
2023/11/06 00:05:14;;;;;;;10.77;8.93;;;;;;;6.35;100.00;95053.91;5090967;28;20024;-64
2023/11/06 00:07:39;;;;;;;10.50;7.95;;;;;;;6.35;100.00;95050.47;5083497;28;20457;-64
2023/11/06 00:10:08;;;;;;;8.25;7.45;;;;;;;6.30;100.00;95049.09;5085809;28;20032;-64
2023/11/06 00:12:38;;;;;;;10.80;9.68;;;;;;;6.26;100.00;95052.91;5079096;28;20062;-64
2023/11/06 00:15:04;;;;;;;12.57;11.05;;;;;;;6.20;100.00;95069.09;5087667;28;20024;-64
2023/11/06 00:17:29;;;;;;;11.43;10.32;;;;;;;6.16;100.00;95070.34;5091298;28;20030;-64
2023/11/06 00:19:55;;;;;;;11.27;10.20;;;;;;;6.20;100.00;95068.28;5096258;28;20077;-64
2023/11/06 00:22:20;;;;;;;12.82;11.65;;;;;;;6.27;100.00;95066.81;5086847;28;21002;-64
2023/11/06 00:24:46;;;;;;;13.00;11.82;;;;;;;6.27;100.00;95078.06;5081734;28;20031;-63
2023/11/06 00:27:11;;;;;;;13.27;12.07;;;;;;;6.26;100.00;95078.22;5088106;28;20032;-64
2023/11/06 00:29:36;;;;;;;15.43;13.98;;;;;;;6.26;100.00;95076.41;5094421;28;20046;-64
2023/11/06 00:32:03;;;;;;;13.50;12.25;;;;;;;6.23;100.00;95081.91;5092126;28;20057;-64
2023/11/06 00:34:28;;;;;;;12.85;11.07;;;;;;;6.14;100.00;95080.09;5085819;28;20020;-63
2023/11/06 00:36:54;;;;;;;14.48;12.85;;;;;;;6.23;100.00;95081.09;5085749;28;20111;-64
2023/11/06 00:39:19;;;;;;;15.75;12.55;;;;;;;6.18;100.00;95080.63;5084781;28;20054;-64
2023/11/06 00:41:45;;;;;;;12.85;11.43;;;;;;;6.32;100.00;95082.91;5082776;28;20628;-64
2023/11/06 00:44:10;;;;;;;14.82;13.30;;;;;;;6.23;100.00;95084.53;5084039;28;20034;-64
2023/11/06 00:46:36;;;;;;;18.75;16.67;;;;;;;6.22;100.00;95082.88;5088038;28;20025;-64
2023/11/06 00:49:01;;;;;;;18.27;16.50;;;;;;;6.24;100.00;95080.94;5088653;28;20024;-63
2023/11/06 00:51:27;;;;;;;18.40;16.60;;;;;;;6.25;100.00;95092.25;5087032;28;20485;-64
2023/11/06 00:53:52;;;;;;;18.90;16.88;;;;;;;6.15;100.00;95092.19;5080013;28;20016;-64
2023/11/06 00:56:17;;;;;;;17.52;15.93;;;;;;;6.15;100.00;95087.78;5083615;28;20083;-64
2023/11/06 00:58:43;;;;;;;16.38;14.93;;;;;;;6.16;100.00;95093.84;5088130;28;20522;-64
2023/11/06 01:01:08;;;;;;;23.52;21.33;;;;;;;6.13;100.00;95096.72;5084013;28;20032;-64
2023/11/06 01:03:34;;;;;;;31.98;29.08;;;;;;;6.15;100.00;95097.44;5087799;28;20661;-64
2023/11/06 01:05:59;;;;;;;28.45;25.85;;;;;;;6.20;100.00;95099.66;5082765;28;20028;-63
2023/11/06 01:08:25;;;;;;;29.13;26.23;;;;;;;6.23;100.00;95099.41;5081116;28;20470;-64
2023/11/06 01:10:51;;;;;;;26.95;24.38;;;;;;;6.20;100.00;95100.47;5085409;28;20052;-63
2023/11/06 01:13:17;;;;;;;18.60;15.93;;;;;;;6.21;100.00;95093.47;5080645;28;20485;-64
2023/11/06 01:15:43;;;;;;;16.02;13.80;;;;;;;6.15;100.00;95097.44;5082453;28;20104;-64
2023/11/06 01:18:09;;;;;;;17.27;15.68;;;;;;;6.29;100.00;95094.47;5087563;28;20123;-64
2023/11/06 01:20:35;;;;;;;16.83;15.32;;;;;;;6.28;100.00;95102.44;5085269;28;20038;-64
2023/11/06 01:23:00;;;;;;;17.70;16.08;;;;;;;6.17;100.00;95092.91;5085073;28;20830;-64
2023/11/06 01:25:26;;;;;;;15.02;13.73;;;;;;;6.21;100.00;95096.91;5092666;28;20028;-64
2023/11/06 01:27:51;;;;;;;22.35;20.33;;;;;;;6.15;100.00;95092.19;5081589;28;20035;-64
2023/11/06 01:30:18;;;;;;;23.33;21.20;;;;;;;6.12;100.00;95089.84;5082564;28;20119;-64
2023/11/06 01:32:43;;;;;;;28.98;25.95;;;;;;;6.09;100.00;95097.94;5080675;28;20024;-64
2023/11/06 01:35:11;;;;;;;13.48;12.02;;;;;;;5.99;100.00;95093.44;5084808;28;20035;-64
2023/11/06 01:37:37;;;;;;;12.75;11.40;;;;;;;5.97;100.00;95086.72;5088272;28;20466;-64
2023/11/06 01:40:06;;;;;;;15.10;13.77;;;;;;;5.96;100.00;95088.47;5086551;28;20028;-64
2023/11/06 01:42:31;;;;;;;13.15;11.90;;;;;;;5.93;100.00;95083.53;5085160;28;20093;-64
2023/11/06 01:44:57;;;;;;;13.05;11.63;;;;;;;5.90;100.00;95094.22;5081994;28;20032;-63
2023/11/06 01:47:24;;;;;;;12.13;11.02;;;;;;;5.88;100.00;95096.16;5083724;28;20040;-63
2023/11/06 01:49:50;;;;;;;9.82;8.80;;;;;;;6.11;100.00;95089.00;5086851;28;20508;-64
2023/11/06 01:52:17;;;;;;;22.77;20.52;;;;;;;6.13;100.00;95096.72;5086073;28;20028;-64
2023/11/06 01:54:43;;;;;;;21.77;18.63;;;;;;;5.92;100.00;95081.88;5087357;28;20589;-64
2023/11/06 01:57:10;;;;;;;21.17;19.17;;;;;;;5.74;100.00;95085.03;5086916;28;20020;-64
2023/11/06 01:59:36;;;;;;;19.23;17.55;;;;;;;5.66;100.00;95090.09;5084166;28;20066;-64
2023/11/06 02:02:05;;;;;;;17.70;16.13;;;;;;;5.62;100.00;95091.25;5082005;28;20020;-64
2023/11/06 02:04:31;;;;;;;17.45;15.85;;;;;;;5.54;100.00;95091.06;5082839;28;20028;-63
2023/11/06 02:07:00;;;;;;;14.30;12.80;;;;;;;5.58;100.00;95093.31;5083051;28;20704;-63
2023/11/06 02:09:29;;;;;;;15.10;13.82;;;;;;;5.60;100.00;95098.41;5083541;28;20037;-64
2023/11/06 02:11:57;;;;;;;14.70;13.50;;;;;;;5.57;100.00;95103.88;5088494;28;20016;-64
2023/11/06 02:14:23;;;;;;;15.25;13.95;;;;;;;5.54;100.00;95104.13;5090557;28;20486;-64
2023/11/06 02:16:51;;;;;;;15.13;13.85;;;;;;;5.52;100.00;95104.25;5086768;28;20275;-64
2023/11/06 02:19:17;;;;;;;15.88;14.25;;;;;;;5.54;100.00;95104.13;5095587;28;20058;-63
2023/11/06 02:21:45;;;;;;;16.85;15.43;;;;;;;5.53;100.00;95107.69;5090032;28;20594;-64
2023/11/06 02:24:11;;;;;;;18.08;16.23;;;;;;;5.54;100.00;95101.53;5087681;28;20035;-64
2023/11/06 02:26:36;;;;;;;21.40;16.00;;;;;;;5.56;100.00;95105.69;5089790;28;20396;-63
2023/11/06 02:29:02;;;;;;;17.40;13.45;;;;;;;5.58;100.00;95102.91;5090855;28;20036;-64
2023/11/06 02:31:29;;;;;;;15.38;14.15;;;;;;;5.63;100.00;95099.94;5082008;28;20068;-63
2023/11/06 02:33:55;;;;;;;21.55;19.50;;;;;;;5.68;100.00;95100.38;5087879;28;20048;-64
2023/11/06 02:36:20;;;;;;;21.27;19.38;;;;;;;5.71;100.00;95100.97;5093552;28;20073;-64
2023/11/06 02:38:46;;;;;;;17.67;16.08;;;;;;;5.71;100.00;95094.91;5084544;28;20047;-63
2023/11/06 02:41:12;;;;;;;17.70;14.68;;;;;;;5.72;100.00;95101.78;5088201;28;20027;-64
2023/11/06 02:43:38;;;;;;;36.40;14.55;;;;;;;5.72;100.00;95100.03;5088670;28;20020;-64
2023/11/06 02:46:03;;;;;;;71.10;13.95;;;;;;;5.71;100.00;95106.19;5084462;28;20115;-63
2023/11/06 02:48:30;;;;;;;24.10;16.00;;;;;;;5.68;100.00;95101.22;5085563;28;20061;-64
2023/11/06 02:50:55;;;;;;;23.15;9.93;;;;;;;5.71;100.00;95110.56;5090040;28;20027;-63
2023/11/06 02:53:20;;;;;;;60.25;11.00;;;;;;;5.68;100.00;95113.44;5081661;28;20055;-63
2023/11/06 02:55:46;;;;;;;62.58;9.85;;;;;;;5.74;100.00;95108.56;5082574;28;20032;-63
2023/11/06 02:58:13;;;;;;;46.25;9.43;;;;;;;5.68;100.00;95116.91;5080199;28;20031;-64
2023/11/06 03:00:39;;;;;;;47.60;8.20;;;;;;;5.64;100.00;95114.66;5083613;28;20025;-63
2023/11/06 03:03:04;;;;;;;25.73;11.23;;;;;;;5.61;100.00;95123.56;5084661;28;20028;-63
2023/11/06 03:05:31;;;;;;;35.22;11.57;;;;;;;5.61;100.00;95131.41;5086725;28;20028;-63
2023/11/06 03:07:56;;;;;;;23.52;13.38;;;;;;;5.63;100.00;95128.66;5081368;28;20024;-64
2023/11/06 03:10:22;;;;;;;79.07;10.90;;;;;;;5.61;100.00;95138.41;5086561;28;20054;-63
2023/11/06 03:12:49;;;;;;;86.32;9.50;;;;;;;5.58;100.00;95142.09;5085449;28;20024;-64
2023/11/06 03:15:15;;;;;;;25.67;10.00;;;;;;;5.54;100.00;95138.06;5085113;28;20028;-63
2023/11/06 03:17:40;;;;;;;43.45;10.13;;;;;;;5.57;100.00;95132.59;5091339;28;20488;-63
2023/11/06 03:20:12;;;;;;;21.48;10.27;;;;;;;5.59;100.00;95128.94;5084820;28;20043;-63
2023/11/06 03:22:38;;;;;;;12.70;10.25;;;;;;;5.66;100.00;95136.25;5087067;28;20047;-63
2023/11/06 03:25:05;;;;;;;24.70;17.60;;;;;;;5.62;100.00;95146.09;5087318;28;20016;-63
2023/11/06 03:27:30;;;;;;;43.90;21.45;;;;;;;5.58;100.00;95148.16;5092331;28;20032;-63
2023/11/06 03:29:56;;;;;;;89.43;17.42;;;;;;;5.59;100.00;95154.19;5090320;28;20052;-63
2023/11/06 03:32:21;;;;;;;36.05;18.85;;;;;;;5.58;100.00;95148.16;5091629;28;20024;-63
2023/11/06 03:34:46;;;;;;;29.88;14.57;;;;;;;5.60;100.00;95140.19;5097449;28;20381;-63
2023/11/06 03:37:12;;;;;;;20.20;10.32;;;;;;;5.61;100.00;95149.69;5090772;28;20459;-63
2023/11/06 03:39:40;;;;;;;10.98;10.00;;;;;;;5.55;100.00;95147.56;5082342;28;20021;-64
2023/11/06 03:42:06;;;;;;;23.45;7.78;;;;;;;5.57;100.00;95146.50;5090512;28;20017;-63
2023/11/06 03:44:31;;;;;;;14.88;9.00;;;;;;;5.51;100.00;95136.53;5091451;28;20027;-63
2023/11/06 03:46:57;;;;;;;9.80;8.85;;;;;;;5.51;100.00;95143.56;5071321;28;20031;-63
2023/11/06 03:49:22;;;;;;;7.88;6.88;;;;;;;5.47;100.00;95144.75;5084402;28;20195;-63
2023/11/06 03:51:48;;;;;;;16.40;12.05;;;;;;;5.49;100.00;95142.84;5085604;28;20034;-63
2023/11/06 03:54:13;;;;;;;31.15;11.50;;;;;;;5.49;100.00;95135.03;5087645;28;20032;-63
2023/11/06 03:56:38;;;;;;;19.50;7.88;;;;;;;5.41;100.00;95125.19;5087872;28;20024;-63
2023/11/06 03:59:04;;;;;;;18.80;8.75;;;;;;;5.32;100.00;95116.31;5081782;28;20039;-63
2023/11/06 04:01:34;;;;;;;21.42;7.43;;;;;;;5.35;100.00;95103.00;5085717;28;20480;-63
2023/11/06 04:04:00;;;;;;;15.75;8.88;;;;;;;5.30;100.00;95118.22;5087275;28;20161;-64
2023/11/06 04:06:26;;;;;;;58.65;8.77;;;;;;;5.19;100.00;95115.63;5086903;28;20400;-63
2023/11/06 04:08:51;;;;;;;35.05;7.70;;;;;;;5.02;100.00;95113.44;5091316;28;20035;-63
2023/11/06 04:11:17;;;;;;;20.23;11.02;;;;;;;4.98;100.00;95114.63;5083815;28;20048;-63
2023/11/06 04:13:43;;;;;;;28.80;11.95;;;;;;;5.06;100.00;95126.22;5084356;28;20020;-63
2023/11/06 04:16:08;;;;;;;53.00;10.05;;;;;;;4.95;100.00;95114.03;5094589;28;20028;-63
2023/11/06 04:18:34;;;;;;;32.78;9.48;;;;;;;4.86;100.00;95113.81;5087910;28;20036;-63
2023/11/06 04:21:00;;;;;;;21.15;10.98;;;;;;;4.75;100.00;95113.00;5089315;28;20516;-63
2023/11/06 04:23:26;;;;;;;17.55;9.90;;;;;;;4.73;100.00;95113.09;5081434;28;20130;-63
2023/11/06 04:25:51;;;;;;;16.00;10.45;;;;;;;4.68;100.00;95113.50;5083622;28;20024;-63
2023/11/06 04:28:17;;;;;;;23.67;12.13;;;;;;;4.71;100.00;95105.44;5094508;28;20027;-63
2023/11/06 04:30:43;;;;;;;30.75;13.98;;;;;;;4.58;100.00;95107.31;5085962;28;20020;-63
2023/11/06 04:33:09;;;;;;;26.45;12.80;;;;;;;4.54;100.00;95101.53;5086757;28;20043;-63
2023/11/06 04:35:35;;;;;;;18.75;12.05;;;;;;;4.49;100.00;95100.22;5082550;28;20107;-63
2023/11/06 04:38:00;;;;;;;15.52;8.05;;;;;;;4.39;100.00;95100.91;5084811;28;20162;-63
2023/11/06 04:40:28;;;;;;;12.45;8.18;;;;;;;4.32;100.00;95101.53;5096884;28;20053;-63
2023/11/06 04:42:54;;;;;;;20.05;8.75;;;;;;;4.35;100.00;95103.91;5078241;28;20024;-63
2023/11/06 04:45:19;;;;;;;20.98;10.68;;;;;;;4.23;100.00;95109.09;5085672;28;20042;-63
2023/11/06 04:47:45;;;;;;;14.07;9.68;;;;;;;4.20;100.00;95104.13;5085383;28;20483;-63
2023/11/06 04:50:10;;;;;;;11.70;8.98;;;;;;;4.15;100.00;95109.69;5082599;28;20511;-63
2023/11/06 04:52:36;;;;;;;16.98;13.23;;;;;;;4.11;100.00;95108.25;5089130;28;20055;-63
2023/11/06 04:55:01;;;;;;;16.38;13.13;;;;;;;4.08;100.00;95115.47;5086317;28;20069;-63
2023/11/06 04:57:27;;;;;;;17.20;14.65;;;;;;;4.20;100.00;95122.34;5086084;28;20020;-63
2023/11/06 04:59:52;;;;;;;14.07;11.30;;;;;;;4.15;100.00;95124.50;5082821;28;20089;-64
2023/11/06 05:02:18;;;;;;;9.93;8.23;;;;;;;4.18;100.00;95123.41;5083165;28;20110;-63
2023/11/06 05:04:43;;;;;;;8.00;7.10;;;;;;;4.08;100.00;95115.47;5088757;28;20055;-63
2023/11/06 05:07:09;;;;;;;46.00;41.60;;;;;;;4.07;100.00;95116.41;5081230;28;20078;-63
2023/11/06 05:09:34;;;;;;;26.35;22.35;;;;;;;4.09;100.00;95117.97;5078959;28;20028;-64
2023/11/06 05:12:00;;;;;;;33.25;17.25;;;;;;;4.18;100.00;95123.41;5076156;28;20024;-63
2023/11/06 05:14:25;;;;;;;25.50;13.23;;;;;;;4.24;100.00;95128.19;5091856;28;20032;-63
2023/11/06 05:16:51;;;;;;;18.08;11.80;;;;;;;4.18;100.00;95132.06;5088353;28;20042;-63
2023/11/06 05:19:19;;;;;;;22.38;11.77;;;;;;;4.18;100.00;95132.06;5081014;28;20032;-63
2023/11/06 05:21:46;;;;;;;20.52;12.32;;;;;;;4.19;100.00;95133.72;5093681;28;20036;-63
2023/11/06 05:24:12;;;;;;;16.70;11.23;;;;;;;4.22;100.00;95132.69;5082901;28;20077;-63
2023/11/06 05:26:38;;;;;;;24.83;10.85;;;;;;;4.18;100.00;95137.28;5096535;28;20119;-63
2023/11/06 05:29:04;;;;;;;16.35;10.15;;;;;;;4.14;100.00;95139.28;5095958;28;20111;-63
2023/11/06 05:31:29;;;;;;;19.30;16.65;;;;;;;4.21;100.00;95138.84;5101930;28;20074;-63
2023/11/06 05:33:55;;;;;;;21.42;16.75;;;;;;;4.26;100.00;95137.53;5092101;28;20028;-63
2023/11/06 05:36:21;;;;;;;18.52;14.25;;;;;;;4.27;100.00;95144.38;5093534;28;20047;-63
2023/11/06 05:38:46;;;;;;;16.70;12.57;;;;;;;4.24;100.00;95155.06;5086422;28;20485;-63
2023/11/06 05:41:12;;;;;;;19.27;15.27;;;;;;;4.26;100.00;95150.53;5087862;28;20552;-63
2023/11/06 05:43:38;;;;;;;24.13;17.63;;;;;;;4.35;100.00;95154.25;5088522;28;20029;-63
2023/11/06 05:46:05;;;;;;;22.40;17.17;;;;;;;4.37;100.00;95154.13;5096691;28;20032;-63
2023/11/06 05:48:31;;;;;;;28.98;18.20;;;;;;;4.41;100.00;95163.38;5098001;28;20027;-63
2023/11/06 05:50:57;;;;;;;33.40;24.55;;;;;;;4.49;100.00;95166.22;5085740;28;20035;-63
2023/11/06 05:53:22;;;;;;;27.48;19.08;;;;;;;4.55;100.00;95184.00;5096358;28;20416;-63
2023/11/06 05:55:48;;;;;;;44.83;36.80;;;;;;;4.68;100.00;95188.28;5094230;28;20036;-63
2023/11/06 05:58:14;;;;;;;44.25;36.67;;;;;;;4.67;100.00;95192.66;5088513;28;20036;-63
2023/11/06 06:00:40;;;;;;;35.25;31.50;;;;;;;4.65;100.00;95193.72;5097340;28;20525;-63
2023/11/06 06:03:06;;;;;;;31.92;28.45;;;;;;;4.65;100.00;95201.56;5087979;28;20666;-63
2023/11/06 06:05:32;;;;;;;31.38;24.00;;;;;;;4.93;100.00;95199.41;5094412;28;20035;-63
2023/11/06 06:07:57;;;;;;;27.70;24.75;;;;;;;4.77;100.00;95190.19;5088287;28;20024;-63
2023/11/06 06:10:23;;;;;;;29.73;24.58;;;;;;;4.74;100.00;95200.81;5088278;28;20048;-63
2023/11/06 06:12:48;;;;;;;24.55;17.60;;;;;;;4.66;100.00;95196.22;5090803;28;20039;-63
2023/11/06 06:15:14;;;;;;;26.67;23.85;;;;;;;4.70;100.00;95200.25;5093785;28;20124;-63
2023/11/06 06:17:40;;;;;;;26.48;23.65;;;;;;;4.72;100.00;95203.56;5091103;28;20477;-63
2023/11/06 06:20:15;;;;;;;28.45;24.75;;;;;;;4.79;100.00;95203.09;5090374;28;20111;-63
2023/11/06 06:22:41;;;;;;;18.95;16.65;;;;;;;4.80;100.00;95204.75;5089370;28;20614;-63
2023/11/06 06:25:08;;;;;;;22.45;19.35;;;;;;;4.91;100.00;95209.13;5088774;28;20109;-64
2023/11/06 06:27:34;;;;;;;24.42;18.60;;;;;;;4.95;100.00;95207.94;5093204;28;20031;-63
2023/11/06 06:30:00;;;;;;;25.35;18.52;;;;;;;4.93;100.00;95202.88;5085075;28;20025;-63
2023/11/06 06:32:25;;;;;;;25.40;15.07;;;;;;;4.92;100.00;95203.81;5090704;28;20077;-64
2023/11/06 06:34:51;;;;;;;22.08;19.73;;;;;;;4.95;100.00;95205.34;5084255;28;20020;-65
2023/11/06 06:37:16;;;;;;;22.70;20.30;;;;;;;5.03;100.00;95200.38;5085798;28;20081;-63
2023/11/06 06:39:42;;;;;;;32.40;29.30;;;;;;;5.07;100.00;95199.19;5087438;28;20029;-63
2023/11/06 06:42:08;;;;;;;37.67;33.80;;;;;;;5.11;100.00;95194.56;5084039;28;20055;-63
2023/11/06 06:44:33;;;;;;;35.75;32.25;;;;;;;5.13;100.00;95190.84;5085098;28;20451;-64
2023/11/06 06:46:58;;;;;;;30.02;24.02;;;;;;;5.18;100.00;95181.84;5085579;28;20067;-63
2023/11/06 06:49:27;;;;;;;25.77;21.42;;;;;;;5.24;100.00;95183.97;5089641;28;20050;-64
2023/11/06 06:51:53;;;;;;;30.63;27.67;;;;;;;5.28;100.00;95188.00;5083304;28;20078;-65
2023/11/06 06:54:19;;;;;;;27.05;24.27;;;;;;;5.30;100.00;95192.16;5091890;28;20039;-65
2023/11/06 06:56:46;;;;;;;58.10;51.88;;;;;;;5.29;100.00;95185.25;5084541;28;20092;-63
2023/11/06 06:59:11;;;;;;;44.40;39.85;;;;;;;5.29;100.00;95189.66;5085565;28;20138;-64
2023/11/06 07:01:37;;;;;;;40.53;29.83;;;;;;;5.33;100.00;95198.91;5088406;28;20112;-65
2023/11/06 07:04:02;;;;;;;29.02;24.10;;;;;;;5.36;100.00;95209.09;5084089;28;20542;-64
2023/11/06 07:06:28;;;;;;;22.98;20.77;;;;;;;5.37;100.00;95229.03;5080305;28;20032;-65
2023/11/06 07:08:56;;;;;;;11.35;10.38;;;;;;;5.32;100.00;95240.81;5093978;28;20040;-63
2023/11/06 07:11:22;;;;;;;10.35;9.52;;;;;;;5.24;100.00;95239.59;5080269;28;20052;-63
2023/11/06 07:13:48;;;;;;;10.25;9.30;;;;;;;5.21;100.00;95249.47;5082544;28;20024;-63
2023/11/06 07:16:14;;;;;;;15.57;12.00;;;;;;;5.24;100.00;95254.44;5079854;28;20490;-64
2023/11/06 07:18:39;;;;;;;11.40;8.80;;;;;;;5.35;100.00;95258.81;5090611;28;20031;-64
2023/11/06 07:21:05;;;;;;;6.25;5.72;;;;;;;5.50;100.00;95254.19;5090329;28;20019;-64
2023/11/06 07:23:30;;;;;;;5.68;5.28;;;;;;;5.49;100.00;95265.56;5082201;28;20038;-63
2023/11/06 07:25:55;;;;;;;4.88;4.47;;;;;;;5.51;100.00;95261.06;5085821;28;20025;-64
2023/11/06 07:28:21;;;;;;;5.07;4.63;;;;;;;5.57;100.00;95256.19;5084927;28;20054;-63
2023/11/06 07:30:46;;;;;;;8.02;4.32;;;;;;;5.53;100.00;95272.22;5087910;28;20028;-63
2023/11/06 07:33:12;;;;;;;11.75;8.73;;;;;;;5.50;100.00;95277.69;5086976;28;20044;-63
2023/11/06 07:35:37;;;;;;;21.23;13.77;;;;;;;5.57;100.00;95273.63;5086744;28;20050;-63
2023/11/06 07:38:03;;;;;;;24.13;12.77;;;;;;;5.70;100.00;95270.88;5086132;28;20405;-63
2023/11/06 07:40:28;;;;;;;9.80;8.70;;;;;;;5.66;100.00;95272.91;5082524;28;20487;-63
2023/11/06 07:42:54;;;;;;;9.10;8.20;;;;;;;5.59;100.00;95275.16;5085429;28;20027;-64
2023/11/06 07:45:19;;;;;;;5.57;5.18;;;;;;;5.63;100.00;95280.97;5084685;28;20106;-64
2023/11/06 07:47:46;;;;;;;6.65;5.72;;;;;;;5.65;100.00;95286.91;5098033;28;20034;-64
2023/11/06 07:50:11;;;;;;;8.98;8.18;;;;;;;5.71;100.00;95283.81;5083235;28;20021;-65
2023/11/06 07:52:36;;;;;;;7.32;6.63;;;;;;;5.79;100.00;95288.44;5086836;28;20043;-66
2023/11/06 07:55:04;;;;;;;7.03;6.45;;;;;;;5.94;100.00;95294.22;5087092;28;20024;-64
2023/11/06 07:57:29;;;;;;;6.85;6.25;;;;;;;6.07;100.00;95280.16;5083532;28;20055;-65
2023/11/06 07:59:55;;;;;;;6.15;5.70;;;;;;;6.06;100.00;95286.34;5089270;28;20077;-64
2023/11/06 08:02:21;;;;;;;7.25;6.18;;;;;;;6.05;100.00;95290.75;5089027;28;20103;-65
2023/11/06 08:04:47;;;;;;;6.13;5.70;;;;;;;6.11;100.00;95292.06;5090509;28;20024;-65
2023/11/06 08:07:13;;;;;;;6.97;6.32;;;;;;;6.17;100.00;95288.94;5089227;28;20043;-64
2023/11/06 08:09:39;;;;;;;8.68;8.07;;;;;;;6.24;100.00;95294.50;5084074;28;20039;-64
2023/11/06 08:12:09;;;;;;;6.43;5.78;;;;;;;6.24;100.00;95295.31;5089855;28;20479;-65
2023/11/06 08:14:35;;;;;;;4.85;4.38;;;;;;;6.25;100.00;95296.97;5090349;28;20087;-65
2023/11/06 08:17:00;;;;;;;9.10;8.45;;;;;;;6.30;100.00;95305.28;5082357;28;20032;-65
2023/11/06 08:19:26;;;;;;;7.78;7.07;;;;;;;6.35;100.00;95293.63;5087851;28;20032;-65
2023/11/06 08:21:51;;;;;;;8.40;7.38;;;;;;;6.47;100.00;95294.41;5092183;28;20032;-65
2023/11/06 08:24:17;;;;;;;6.70;6.00;;;;;;;6.53;100.00;95307.81;5080830;28;20035;-65
2023/11/06 08:26:44;;;;;;;7.03;6.43;;;;;;;6.57;100.00;95310.97;5084180;28;20031;-65
2023/11/06 08:29:10;;;;;;;8.57;7.25;;;;;;;6.65;100.00;95300.75;5091348;28;20032;-65
2023/11/06 08:31:35;;;;;;;8.05;7.28;;;;;;;6.72;100.00;95314.13;5097472;28;20570;-65
2023/11/06 08:34:01;;;;;;;5.97;5.53;;;;;;;6.76;100.00;95315.53;5083188;28;20469;-65
2023/11/06 08:36:26;;;;;;;5.68;4.68;;;;;;;6.84;100.00;95322.72;5079892;28;20378;-65
2023/11/06 08:38:52;;;;;;;5.03;4.53;;;;;;;6.81;100.00;95323.00;5086037;28;20016;-65
2023/11/06 08:41:17;;;;;;;5.75;5.32;;;;;;;6.80;100.00;95323.94;5086175;28;20067;-65
2023/11/06 08:43:43;;;;;;;6.78;6.10;;;;;;;6.82;100.00;95325.50;5087765;28;20085;-65
2023/11/06 08:46:08;;;;;;;6.35;5.72;;;;;;;6.72;100.00;95322.81;5082719;28;20119;-65
2023/11/06 08:48:34;;;;;;;9.45;5.55;;;;;;;6.74;100.00;95333.13;5083531;28;20028;-65
2023/11/06 08:50:59;;;;;;;6.57;5.85;;;;;;;6.69;100.00;95340.53;5078350;28;20036;-65
2023/11/06 08:53:25;;;;;;;5.85;5.35;;;;;;;6.83;100.00;95340.22;5090751;28;20106;-65
2023/11/06 08:55:50;;;;;;;5.68;5.10;;;;;;;6.72;100.00;95345.50;5080507;28;20074;-65
2023/11/06 08:58:16;;;;;;;5.30;4.80;;;;;;;6.71;100.00;95363.00;5081628;28;20028;-65
2023/11/06 09:00:43;;;;;;;7.03;5.40;;;;;;;6.73;100.00;95368.94;5080765;28;20031;-65
2023/11/06 09:03:09;;;;;;;9.00;5.20;;;;;;;6.75;100.00;95376.69;5088048;28;20028;-65
2023/11/06 09:05:35;;;;;;;6.47;4.90;;;;;;;6.75;100.00;95374.06;5087346;28;20514;-65
2023/11/06 09:08:01;;;;;;;7.40;5.90;;;;;;;6.79;100.00;95372.00;5063674;28;20028;-65
2023/11/06 09:10:27;;;;;;;12.27;9.80;;;;;;;6.86;100.00;95381.03;5087516;28;20054;-65
2023/11/06 09:12:53;;;;;;;7.60;6.75;;;;;;;7.02;100.00;95380.59;5096469;28;20100;-65
2023/11/06 09:15:19;;;;;;;9.40;8.48;;;;;;;7.00;100.00;95379.88;5081776;28;21214;-65
2023/11/06 09:17:45;;;;;;;8.38;6.95;;;;;;;7.04;100.00;95378.66;5079500;28;20397;-65
2023/11/06 09:20:11;;;;;;;9.15;8.38;;;;;;;7.00;100.00;95379.88;5081340;28;20028;-65
2023/11/06 09:22:37;;;;;;;8.80;8.00;;;;;;;7.01;100.00;95381.53;5088997;28;20032;-65
2023/11/06 09:25:05;;;;;;;4.82;4.03;;;;;;;7.10;100.00;95388.63;5086906;28;20027;-65
2023/11/06 09:27:33;;;;;;;4.38;3.65;;;;;;;7.31;100.00;95380.75;5088802;28;20052;-65
2023/11/06 09:30:00;;;;;;;6.70;4.53;;;;;;;7.34;100.00;95395.38;5080057;28;20129;-65
2023/11/06 09:32:25;;;;;;;9.77;7.20;;;;;;;7.36;100.00;95393.44;5084985;28;20044;-65
2023/11/06 09:34:50;;;;;;;8.55;7.00;;;;;;;7.26;100.00;95395.19;5081192;28;20511;-65
2023/11/06 09:37:16;;;;;;;6.38;5.78;;;;;;;7.27;100.00;95399.47;5083898;28;20028;-65
2023/11/06 09:39:43;;;;;;;6.15;5.55;;;;;;;7.23;100.00;95401.50;5083175;28;20066;-64
2023/11/06 09:42:10;;;;;;;7.57;6.47;;;;;;;7.17;100.00;95397.59;5082401;28;20120;-65
2023/11/06 09:44:36;;;;;;;6.80;5.75;;;;;;;7.20;100.00;95393.09;5084376;28;20032;-65
2023/11/06 09:47:07;;;;;;;8.90;8.10;;;;;;;7.24;100.00;95394.50;5081725;28;20106;-65
2023/11/06 09:49:42;;;;;;;16.02;13.77;;;;;;;7.29;100.00;95398.41;5085651;28;20046;-65
2023/11/06 09:52:07;;;;;;;12.40;9.05;;;;;;;7.41;100.00;95406.16;5080379;28;20052;-65
2023/11/06 09:54:33;;;;;;;7.97;6.15;;;;;;;7.55;100.00;95405.00;5079527;28;20459;-65
2023/11/06 09:56:59;;;;;;;6.20;5.63;;;;;;;7.62;100.00;95408.75;5084092;28;20028;-65
2023/11/06 09:59:25;;;;;;;5.75;5.25;;;;;;;7.76;100.00;95397.09;5079471;28;20485;-65
2023/11/06 10:01:53;;;;;;;5.45;4.95;;;;;;;7.86;100.00;95399.78;5087921;28;20032;-65
2023/11/06 10:04:19;;;;;;;6.85;6.30;;;;;;;8.02;100.00;95397.47;5088553;28;20035;-65
2023/11/06 10:06:48;;;;;;;6.60;5.95;;;;;;;8.16;100.00;95382.31;5089321;28;20032;-65
2023/11/06 10:09:22;;;;;;;4.25;3.80;;;;;;;8.36;100.00;95390.22;5084531;28;20111;-65
2023/11/06 10:11:48;;;;;;;5.18;4.78;;;;;;;8.45;100.00;95385.00;5083209;28;20141;-65
2023/11/06 10:14:14;;;;;;;4.65;3.85;;;;;;;8.56;100.00;95384.09;5094156;28;20102;-65
2023/11/06 10:16:40;;;;;;;3.55;3.25;;;;;;;8.68;100.00;95397.06;5093686;28;20028;-65
2023/11/06 10:19:10;;;;;;;7.15;3.15;;;;;;;8.89;100.00;95395.13;5085734;28;20553;-65
2023/11/06 10:21:35;;;;;;;8.57;4.10;;;;;;;8.96;100.00;95395.41;5093225;28;20024;-65
2023/11/06 10:24:02;;;;;;;5.75;4.07;;;;;;;8.92;100.00;95409.78;5084117;28;20556;-66
2023/11/06 10:26:32;;;;;;;4.93;4.53;;;;;;;9.06;100.00;95403.28;5092980;28;20083;-65
2023/11/06 10:29:11;;;;;;;6.50;5.90;;;;;;;8.83;100.00;95408.81;5083659;28;20024;-65
2023/11/06 10:31:40;;;;;;;5.20;4.80;;;;;;;8.82;100.00;95415.03;5087212;28;20085;-65
2023/11/06 10:34:29;;;;;;;7.95;7.25;;;;;;;8.78;100.00;95416.28;5086296;28;20062;-65
2023/11/06 10:37:13;;;;;;;8.43;6.93;;;;;;;8.70;100.00;95424.00;5085368;28;20028;-65
2023/11/06 10:39:52;;;;;;;17.52;13.02;;;;;;;8.76;100.00;95426.09;5080454;28;20036;-64
2023/11/06 10:42:21;;;;;;;9.40;8.13;;;;;;;8.76;100.00;95431.34;5086153;28;20036;-65
2023/11/06 10:44:55;;;;;;;5.20;4.80;;;;;;;8.92;100.00;95435.19;5091073;28;20056;-65
2023/11/06 10:47:25;;;;;;;4.68;4.30;;;;;;;8.87;100.00;95440.88;5083844;28;20034;-65
2023/11/06 10:49:58;;;;;;;10.65;9.63;;;;;;;8.92;100.00;95461.44;5079328;28;20029;-65
2023/11/06 10:52:28;;;;;;;5.53;4.97;;;;;;;8.97;100.00;95449.56;5078754;28;20039;-64
2023/11/06 10:54:58;;;;;;;5.78;5.25;;;;;;;9.11;100.00;95450.13;5086741;28;20033;-64
2023/11/06 10:57:25;;;;;;;4.47;4.10;;;;;;;9.33;100.00;95454.25;5087917;28;20053;-65
2023/11/06 10:59:53;;;;;;;5.22;4.68;;;;;;;9.25;100.00;95467.25;5069829;28;20407;-65
2023/11/06 11:02:37;;;;;;;7.82;6.88;;;;;;;9.22;100.00;95472.81;5091436;28;20016;-65
2023/11/06 11:05:04;;;;;;;5.35;4.90;;;;;;;9.20;100.00;95483.44;5086671;28;20413;-65
2023/11/06 11:07:31;;;;;;;5.82;5.10;;;;;;;9.29;100.00;95473.91;5085700;28;20017;-65
2023/11/06 11:09:59;;;;;;;8.07;7.05;;;;;;;9.35;100.00;95477.78;5082830;28;20105;-65
2023/11/06 11:12:26;;;;;;;10.60;9.50;;;;;;;9.30;100.00;95478.19;5095268;28;20036;-65
2023/11/06 11:14:51;;;;;;;4.85;3.85;;;;;;;9.32;100.00;95495.47;5085981;28;20491;-65
2023/11/06 11:17:17;;;;;;;5.22;4.82;;;;;;;9.37;100.00;95507.34;5081416;28;20038;-64
2023/11/06 11:19:42;;;;;;;4.82;4.45;;;;;;;9.44;100.00;95514.56;5087154;28;20046;-65